sensor_id;sensor_type;location;lat;lon;timestamp;P1;P2;P0
46044;PMS7003;31781;54.094;13.428;2022-10-15T00:09:40;18.50;18.00;14.50
46044;PMS7003;31781;54.094;13.428;2022-10-15T00:14:43;16.25;16.25;13.25
46044;PMS7003;31781;54.094;13.428;2022-10-15T00:30:37;15.00;15.00;10.50
46044;PMS7003;31781;54.094;13.428;2022-10-15T00:41:22;16.25;14.25;10.50
46044;PMS7003;31781;54.094;13.428;2022-10-15T00:46:31;18.75;18.75;13.75
46044;PMS7003;31781;54.094;13.428;2022-10-15T00:51:37;32.25;26.25;21.25
46044;PMS7003;31781;54.094;13.428;2022-10-15T01:02:12;53.67;44.00;35.67
46044;PMS7003;31781;54.094;13.428;2022-10-15T01:07:17;66.33;54.33;48.00
46044;PMS7003;31781;54.094;13.428;2022-10-15T01:18:13;48.00;41.75;33.75
46044;PMS7003;31781;54.094;13.428;2022-10-15T01:23:33;39.75;36.50;30.25
46044;PMS7003;31781;54.094;13.428;2022-10-15T01:29:01;37.67;35.00;28.67
46044;PMS7003;31781;54.094;13.428;2022-10-15T01:34:17;27.75;24.75;21.25
46044;PMS7003;31781;54.094;13.428;2022-10-15T01:39:26;19.00;19.00;16.75
46044;PMS7003;31781;54.094;13.428;2022-10-15T01:44:34;14.00;14.00;9.50
46044;PMS7003;31781;54.094;13.428;2022-10-15T01:55:05;14.75;14.75;11.00
46044;PMS7003;31781;54.094;13.428;2022-10-15T02:00:20;15.50;14.50;11.25
46044;PMS7003;31781;54.094;13.428;2022-10-15T02:05:24;16.00;16.00;11.25
46044;PMS7003;31781;54.094;13.428;2022-10-15T02:10:37;17.25;15.50;11.25
46044;PMS7003;31781;54.094;13.428;2022-10-15T02:15:50;12.75;12.75;10.00
46044;PMS7003;31781;54.094;13.428;2022-10-15T02:21:02;15.25;13.50;10.00
46044;PMS7003;31781;54.094;13.428;2022-10-15T02:26:19;10.00;8.75;6.25
46044;PMS7003;31781;54.094;13.428;2022-10-15T02:31:31;12.75;12.75;9.25
46044;PMS7003;31781;54.094;13.428;2022-10-15T02:36:37;17.25;15.00;12.25
46044;PMS7003;31781;54.094;13.428;2022-10-15T02:42:01;18.50;17.75;14.25
46044;PMS7003;31781;54.094;13.428;2022-10-15T02:47:05;17.25;17.25;13.25
46044;PMS7003;31781;54.094;13.428;2022-10-15T02:52:08;21.00;18.50;16.00
46044;PMS7003;31781;54.094;13.428;2022-10-15T02:57:17;19.50;18.75;14.75
46044;PMS7003;31781;54.094;13.428;2022-10-15T03:02:21;21.25;21.25;16.25
46044;PMS7003;31781;54.094;13.428;2022-10-15T03:07:25;21.00;21.00;17.75
46044;PMS7003;31781;54.094;13.428;2022-10-15T03:12:33;21.00;21.00;17.00
46044;PMS7003;31781;54.094;13.428;2022-10-15T03:23:04;31.50;28.75;23.50
46044;PMS7003;31781;54.094;13.428;2022-10-15T03:28:14;44.25;38.75;30.25
46044;PMS7003;31781;54.094;13.428;2022-10-15T03:33:17;58.67;48.67;38.67
46044;PMS7003;31781;54.094;13.428;2022-10-15T03:38:30;58.67;49.00;38.00
46044;PMS7003;31781;54.094;13.428;2022-10-15T03:43:54;54.33;47.00;36.67
46044;PMS7003;31781;54.094;13.428;2022-10-15T03:49:03;55.25;46.50;36.75
46044;PMS7003;31781;54.094;13.428;2022-10-15T03:54:06;55.25;47.00;36.75
46044;PMS7003;31781;54.094;13.428;2022-10-15T04:04:30;52.50;43.25;35.00
46044;PMS7003;31781;54.094;13.428;2022-10-15T04:09:33;50.00;42.50;34.25
46044;PMS7003;31781;54.094;13.428;2022-10-15T04:14:36;54.25;45.75;35.25
46044;PMS7003;31781;54.094;13.428;2022-10-15T04:19:45;50.75;42.75;33.00
46044;PMS7003;31781;54.094;13.428;2022-10-15T04:24:48;50.25;43.25;34.00
46044;PMS7003;31781;54.094;13.428;2022-10-15T04:29:51;50.00;42.75;33.50
46044;PMS7003;31781;54.094;13.428;2022-10-15T04:35:00;51.50;43.25;34.25
46044;PMS7003;31781;54.094;13.428;2022-10-15T04:40:04;50.50;42.75;32.75
46044;PMS7003;31781;54.094;13.428;2022-10-15T04:45:07;46.50;40.50;31.25
46044;PMS7003;31781;54.094;13.428;2022-10-15T04:50:27;43.50;39.00;30.50
46044;PMS7003;31781;54.094;13.428;2022-10-15T04:55:31;44.75;39.75;31.00
46044;PMS7003;31781;54.094;13.428;2022-10-15T05:06:20;46.75;41.25;32.25
46044;PMS7003;31781;54.094;13.428;2022-10-15T05:22:11;54.67;45.67;36.00
46044;PMS7003;31781;54.094;13.428;2022-10-15T05:27:14;59.00;49.00;39.33
46044;PMS7003;31781;54.094;13.428;2022-10-15T05:32:17;59.67;50.00;39.67
46044;PMS7003;31781;54.094;13.428;2022-10-15T05:37:30;54.75;46.75;36.50
46044;PMS7003;31781;54.094;13.428;2022-10-15T05:42:34;47.25;40.25;31.25
46044;PMS7003;31781;54.094;13.428;2022-10-15T05:52:58;36.50;33.25;26.75
46044;PMS7003;31781;54.094;13.428;2022-10-15T05:58:01;29.50;29.25;22.50
46044;PMS7003;31781;54.094;13.428;2022-10-15T06:03:05;25.75;25.75;20.50
46044;PMS7003;31781;54.094;13.428;2022-10-15T06:08:13;24.50;22.75;17.00
46044;PMS7003;31781;54.094;13.428;2022-10-15T06:13:37;19.25;18.50;12.25
46044;PMS7003;31781;54.094;13.428;2022-10-15T06:19:01;23.50;18.25;15.00
46044;PMS7003;31781;54.094;13.428;2022-10-15T06:24:22;16.25;16.25;11.75
46044;PMS7003;31781;54.094;13.428;2022-10-15T06:29:25;15.25;14.50;7.75
46044;PMS7003;31781;54.094;13.428;2022-10-15T06:50:21;13.75;12.25;7.50
46044;PMS7003;31781;54.094;13.428;2022-10-15T06:55:25;16.00;13.25;10.50
46044;PMS7003;31781;54.094;13.428;2022-10-15T07:00:28;19.75;18.25;11.00
46044;PMS7003;31781;54.094;13.428;2022-10-15T07:05:36;19.75;18.25;14.50
46044;PMS7003;31781;54.094;13.428;2022-10-15T07:10:39;20.50;17.75;10.75
46044;PMS7003;31781;54.094;13.428;2022-10-15T07:15:42;16.75;15.50;9.00
46044;PMS7003;31781;54.094;13.428;2022-10-15T07:20:51;19.50;15.50;10.00
46044;PMS7003;31781;54.094;13.428;2022-10-15T07:25:55;17.75;17.75;11.50
46044;PMS7003;31781;54.094;13.428;2022-10-15T07:31:00;17.75;16.75;12.00
46044;PMS7003;31781;54.094;13.428;2022-10-15T07:36:10;18.50;17.75;12.75
46044;PMS7003;31781;54.094;13.428;2022-10-15T07:41:13;20.25;19.50;12.50
46044;PMS7003;31781;54.094;13.428;2022-10-15T07:46:32;19.75;17.50;12.25
46044;PMS7003;31781;54.094;13.428;2022-10-15T07:51:36;17.50;17.50;10.75
46044;PMS7003;31781;54.094;13.428;2022-10-15T07:56:40;17.00;17.00;11.00
46044;PMS7003;31781;54.094;13.428;2022-10-15T08:01:48;18.25;18.25;11.00
46044;PMS7003;31781;54.094;13.428;2022-10-15T08:06:52;15.50;13.50;10.75
46044;PMS7003;31781;54.094;13.428;2022-10-15T08:11:55;15.75;13.50;10.25
46044;PMS7003;31781;54.094;13.428;2022-10-15T08:17:18;17.25;17.25;12.00
46044;PMS7003;31781;54.094;13.428;2022-10-15T08:22:22;19.00;19.00;12.50
46044;PMS7003;31781;54.094;13.428;2022-10-15T08:27:26;19.50;14.50;11.50
46044;PMS7003;31781;54.094;13.428;2022-10-15T08:32:34;24.00;22.25;13.75
46044;PMS7003;31781;54.094;13.428;2022-10-15T08:37:37;15.75;15.50;12.50
46044;PMS7003;31781;54.094;13.428;2022-10-15T08:53:29;20.25;17.75;11.50
46044;PMS7003;31781;54.094;13.428;2022-10-15T09:09:30;17.50;15.00;10.50
46044;PMS7003;31781;54.094;13.428;2022-10-15T09:14:39;14.00;12.00;9.00
46044;PMS7003;31781;54.094;13.428;2022-10-15T09:19:45;16.75;15.25;9.50
46044;PMS7003;31781;54.094;13.428;2022-10-15T09:24:58;12.75;12.75;9.75
46044;PMS7003;31781;54.094;13.428;2022-10-15T09:30:12;16.50;16.00;10.50
46044;PMS7003;31781;54.094;13.428;2022-10-15T09:35:27;18.50;16.75;12.00
46044;PMS7003;31781;54.094;13.428;2022-10-15T09:40:43;15.00;15.00;10.00
46044;PMS7003;31781;54.094;13.428;2022-10-15T09:46:00;17.25;16.50;9.75
46044;PMS7003;31781;54.094;13.428;2022-10-15T09:51:05;20.00;18.50;13.25
46044;PMS7003;31781;54.094;13.428;2022-10-15T10:01:41;18.25;16.50;11.75
46044;PMS7003;31781;54.094;13.428;2022-10-15T10:07:06;17.75;15.00;10.00
46044;PMS7003;31781;54.094;13.428;2022-10-15T10:12:17;13.50;11.75;9.25
46044;PMS7003;31781;54.094;13.428;2022-10-15T10:17:35;14.25;14.25;12.00
46044;PMS7003;31781;54.094;13.428;2022-10-15T10:23:02;19.75;16.75;12.50
46044;PMS7003;31781;54.094;13.428;2022-10-15T10:28:26;15.50;15.50;13.00
46044;PMS7003;31781;54.094;13.428;2022-10-15T10:33:36;17.25;17.25;12.50
46044;PMS7003;31781;54.094;13.428;2022-10-15T10:38:59;17.00;17.00;13.00
46044;PMS7003;31781;54.094;13.428;2022-10-15T10:44:16;13.25;13.25;10.00
46044;PMS7003;31781;54.094;13.428;2022-10-15T10:49:29;14.50;14.50;9.75
46044;PMS7003;31781;54.094;13.428;2022-10-15T10:54:54;16.00;15.00;10.00
46044;PMS7003;31781;54.094;13.428;2022-10-15T11:00:00;15.75;15.75;10.00
46044;PMS7003;31781;54.094;13.428;2022-10-15T11:05:07;13.50;13.50;10.25
46044;PMS7003;31781;54.094;13.428;2022-10-15T11:10:17;13.75;13.00;10.00
46044;PMS7003;31781;54.094;13.428;2022-10-15T11:15:29;12.25;12.25;8.25
46044;PMS7003;31781;54.094;13.428;2022-10-15T11:20:46;12.75;11.50;8.25
46044;PMS7003;31781;54.094;13.428;2022-10-15T11:26:25;11.50;11.50;8.50
46044;PMS7003;31781;54.094;13.428;2022-10-15T11:31:50;11.25;10.75;6.75
46044;PMS7003;31781;54.094;13.428;2022-10-15T11:37:21;10.50;8.50;6.75
46044;PMS7003;31781;54.094;13.428;2022-10-15T11:42:58;8.75;8.75;6.75
46044;PMS7003;31781;54.094;13.428;2022-10-15T11:48:05;10.50;8.50;6.50
46044;PMS7003;31781;54.094;13.428;2022-10-15T11:53:22;7.00;7.00;5.50
46044;PMS7003;31781;54.094;13.428;2022-10-15T12:04:10;10.75;10.75;8.25
46044;PMS7003;31781;54.094;13.428;2022-10-15T12:20:11;9.50;9.50;7.00
46044;PMS7003;31781;54.094;13.428;2022-10-15T12:25:47;9.00;8.25;5.00
46044;PMS7003;31781;54.094;13.428;2022-10-15T12:31:07;6.00;6.00;5.00
46044;PMS7003;31781;54.094;13.428;2022-10-15T12:36:19;7.33;7.33;6.00
46044;PMS7003;31781;54.094;13.428;2022-10-15T12:47:11;5.00;5.00;4.00
46044;PMS7003;31781;54.094;13.428;2022-10-15T12:57:56;6.75;6.75;5.75
46044;PMS7003;31781;54.094;13.428;2022-10-15T13:08:43;3.50;3.50;3.00
46044;PMS7003;31781;54.094;13.428;2022-10-15T13:13:49;4.00;4.00;3.00
46044;PMS7003;31781;54.094;13.428;2022-10-15T13:19:24;5.33;5.33;3.67
46044;PMS7003;31781;54.094;13.428;2022-10-15T13:24:38;5.00;5.00;4.33
46044;PMS7003;31781;54.094;13.428;2022-10-15T13:30:09;5.00;5.00;4.00
46044;PMS7003;31781;54.094;13.428;2022-10-15T13:35:18;6.00;6.00;5.33
46044;PMS7003;31781;54.094;13.428;2022-10-15T13:40:26;6.00;6.00;5.00
46044;PMS7003;31781;54.094;13.428;2022-10-15T13:45:36;7.00;7.00;6.33
46044;PMS7003;31781;54.094;13.428;2022-10-15T13:50:52;6.00;6.00;5.00
46044;PMS7003;31781;54.094;13.428;2022-10-15T13:55:58;5.50;5.50;4.00
46044;PMS7003;31781;54.094;13.428;2022-10-15T14:01:08;7.00;7.00;5.25
46044;PMS7003;31781;54.094;13.428;2022-10-15T14:06:18;4.33;4.33;3.67
46044;PMS7003;31781;54.094;13.428;2022-10-15T14:11:22;3.33;3.33;3.00
46044;PMS7003;31781;54.094;13.428;2022-10-15T14:21:53;4.00;4.00;4.00
46044;PMS7003;31781;54.094;13.428;2022-10-15T14:27:03;3.67;3.67;2.67
46044;PMS7003;31781;54.094;13.428;2022-10-15T14:32:18;3.00;3.00;3.00
46044;PMS7003;31781;54.094;13.428;2022-10-15T14:37:36;3.00;3.00;2.00
46044;PMS7003;31781;54.094;13.428;2022-10-15T14:42:46;3.00;3.00;3.00
46044;PMS7003;31781;54.094;13.428;2022-10-15T14:48:10;3.00;3.00;2.00
46044;PMS7003;31781;54.094;13.428;2022-10-15T14:53:34;2.33;2.33;2.00
46044;PMS7003;31781;54.094;13.428;2022-10-15T14:58:49;3.33;3.33;2.00
46044;PMS7003;31781;54.094;13.428;2022-10-15T15:09:13;3.67;3.33;2.33
46044;PMS7003;31781;54.094;13.428;2022-10-15T15:14:18;2.67;2.67;2.00
46044;PMS7003;31781;54.094;13.428;2022-10-15T15:19:40;2.00;2.00;1.00
46044;PMS7003;31781;54.094;13.428;2022-10-15T15:51:03;3.50;3.50;2.50
46044;PMS7003;31781;54.094;13.428;2022-10-15T15:56:10;3.50;3.50;3.50
46044;PMS7003;31781;54.094;13.428;2022-10-15T16:12:13;4.75;4.75;3.75
46044;PMS7003;31781;54.094;13.428;2022-10-15T16:17:16;7.00;7.00;5.00
46044;PMS7003;31781;54.094;13.428;2022-10-15T16:22:20;4.00;4.00;4.00
46044;PMS7003;31781;54.094;13.428;2022-10-15T16:27:29;6.50;6.50;4.00
46044;PMS7003;31781;54.094;13.428;2022-10-15T16:32:47;6.00;5.00;4.00
46044;PMS7003;31781;54.094;13.428;2022-10-15T16:37:51;6.00;6.00;5.00
46044;PMS7003;31781;54.094;13.428;2022-10-15T16:42:54;8.00;7.50;6.50
46044;PMS7003;31781;54.094;13.428;2022-10-15T16:53:46;6.50;5.75;4.75
46044;PMS7003;31781;54.094;13.428;2022-10-15T17:04:31;7.25;6.00;4.75
46044;PMS7003;31781;54.094;13.428;2022-10-15T17:09:51;6.50;6.50;5.50
46044;PMS7003;31781;54.094;13.428;2022-10-15T17:14:53;2.50;2.00;1.00
46044;PMS7003;31781;54.094;13.428;2022-10-15T17:20:15;6.50;6.50;5.75
46044;PMS7003;31781;54.094;13.428;2022-10-15T17:25:18;12.50;10.00;7.25
46044;PMS7003;31781;54.094;13.428;2022-10-15T17:30:21;14.25;12.50;10.00
46044;PMS7003;31781;54.094;13.428;2022-10-15T17:35:30;7.00;7.00;6.25
46044;PMS7003;31781;54.094;13.428;2022-10-15T17:40:38;8.50;8.50;6.25
46044;PMS7003;31781;54.094;13.428;2022-10-15T17:45:44;9.00;8.00;6.25
46044;PMS7003;31781;54.094;13.428;2022-10-15T17:56:08;8.25;7.50;6.00
46044;PMS7003;31781;54.094;13.428;2022-10-15T18:01:12;7.75;7.75;6.00
46044;PMS7003;31781;54.094;13.428;2022-10-15T18:06:36;7.00;7.00;6.00
46044;PMS7003;31781;54.094;13.428;2022-10-15T18:11:45;7.00;6.00;5.25
46044;PMS7003;31781;54.094;13.428;2022-10-15T18:16:48;9.00;7.25;6.00
46044;PMS7003;31781;54.094;13.428;2022-10-15T18:21:51;6.25;6.25;5.50
46044;PMS7003;31781;54.094;13.428;2022-10-15T18:26:59;10.00;9.00;6.00
46044;PMS7003;31781;54.094;13.428;2022-10-15T18:32:19;9.25;9.25;7.00
46044;PMS7003;31781;54.094;13.428;2022-10-15T18:37:24;8.00;6.25;5.25
46044;PMS7003;31781;54.094;13.428;2022-10-15T18:42:46;13.75;10.00;7.25
46044;PMS7003;31781;54.094;13.428;2022-10-15T18:48:07;10.50;10.25;7.25
46044;PMS7003;31781;54.094;13.428;2022-10-15T18:53:10;14.25;12.50;8.50
46044;PMS7003;31781;54.094;13.428;2022-10-15T18:58:13;8.25;8.25;6.00
46044;PMS7003;31781;54.094;13.428;2022-10-15T19:03:22;11.75;10.50;7.25
46044;PMS7003;31781;54.094;13.428;2022-10-15T19:08:41;13.00;12.25;9.00
46044;PMS7003;31781;54.094;13.428;2022-10-15T19:13:46;10.00;10.00;6.00
46044;PMS7003;31781;54.094;13.428;2022-10-15T19:18:49;13.00;13.00;10.00
46044;PMS7003;31781;54.094;13.428;2022-10-15T19:23:57;12.25;10.75;8.00
46044;PMS7003;31781;54.094;13.428;2022-10-15T19:29:01;14.00;14.00;9.25
46044;PMS7003;31781;54.094;13.428;2022-10-15T19:34:04;16.75;16.75;10.75
46044;PMS7003;31781;54.094;13.428;2022-10-15T19:39:14;19.25;18.00;12.25
46044;PMS7003;31781;54.094;13.428;2022-10-15T19:44:38;21.00;17.75;11.25
46044;PMS7003;31781;54.094;13.428;2022-10-15T19:50:06;18.50;17.25;10.25
46044;PMS7003;31781;54.094;13.428;2022-10-15T19:55:10;18.25;14.50;8.25
46044;PMS7003;31781;54.094;13.428;2022-10-15T20:00:13;13.50;13.50;10.00
46044;PMS7003;31781;54.094;13.428;2022-10-15T20:05:22;20.25;17.75;11.75
46044;PMS7003;31781;54.094;13.428;2022-10-15T20:10:25;17.25;15.50;10.75
46044;PMS7003;31781;54.094;13.428;2022-10-15T20:21:21;21.00;17.50;12.75
46044;PMS7003;31781;54.094;13.428;2022-10-15T20:26:24;19.00;17.50;10.25
46044;PMS7003;31781;54.094;13.428;2022-10-15T20:31:27;17.25;16.25;11.00
46044;PMS7003;31781;54.094;13.428;2022-10-15T20:36:36;15.50;15.50;11.00
46044;PMS7003;31781;54.094;13.428;2022-10-15T20:41:39;16.50;15.75;12.00
46044;PMS7003;31781;54.094;13.428;2022-10-15T20:47:03;15.75;15.75;11.25
46044;PMS7003;31781;54.094;13.428;2022-10-15T20:52:10;10.00;10.00;6.25
46044;PMS7003;31781;54.094;13.428;2022-10-15T20:57:18;11.00;11.00;9.00
46044;PMS7003;31781;54.094;13.428;2022-10-15T21:02:27;11.75;10.00;8.25
46044;PMS7003;31781;54.094;13.428;2022-10-15T21:07:29;13.75;11.50;9.50
46044;PMS7003;31781;54.094;13.428;2022-10-15T21:17:49;12.50;12.50;10.00
46044;PMS7003;31781;54.094;13.428;2022-10-15T21:28:00;9.50;9.50;7.50
46044;PMS7003;31781;54.094;13.428;2022-10-15T21:33:09;11.50;11.50;9.25
46044;PMS7003;31781;54.094;13.428;2022-10-15T21:38:16;10.00;10.00;8.00
46044;PMS7003;31781;54.094;13.428;2022-10-15T21:43:19;7.75;7.75;6.00
46044;PMS7003;31781;54.094;13.428;2022-10-15T21:48:27;8.25;8.25;6.00
46044;PMS7003;31781;54.094;13.428;2022-10-15T21:58:40;7.50;6.75;5.25
46044;PMS7003;31781;54.094;13.428;2022-10-15T22:03:51;7.00;7.00;5.25
46044;PMS7003;31781;54.094;13.428;2022-10-15T22:14:27;5.75;5.75;3.75
46044;PMS7003;31781;54.094;13.428;2022-10-15T22:24:42;5.00;5.00;4.50
46044;PMS7003;31781;54.094;13.428;2022-10-15T22:29:53;3.25;3.25;2.25
46044;PMS7003;31781;54.094;13.428;2022-10-15T22:51:01;3.25;3.25;3.00
46044;PMS7003;31781;54.094;13.428;2022-10-15T23:01:11;4.50;4.00;3.00
46044;PMS7003;31781;54.094;13.428;2022-10-15T23:06:22;4.50;4.50;4.00
46044;PMS7003;31781;54.094;13.428;2022-10-15T23:11:28;3.00;3.00;3.00
46044;PMS7003;31781;54.094;13.428;2022-10-15T23:16:32;2.00;2.00;2.00
46044;PMS7003;31781;54.094;13.428;2022-10-15T23:21:43;3.00;2.50;2.00
46044;PMS7003;31781;54.094;13.428;2022-10-15T23:26:48;3.50;3.50;3.00
46044;PMS7003;31781;54.094;13.428;2022-10-15T23:31:52;3.00;3.00;3.00
46044;PMS7003;31781;54.094;13.428;2022-10-15T23:37:03;2.00;2.00;2.00
46044;PMS7003;31781;54.094;13.428;2022-10-15T23:42:07;3.00;3.00;2.50
46044;PMS7003;31781;54.094;13.428;2022-10-15T23:47:09;2.50;2.50;2.50
46044;PMS7003;31781;54.094;13.428;2022-10-15T23:52:29;2.50;2.50;2.25
46044;PMS7003;31781;54.094;13.428;2022-10-15T23:57:34;4.00;4.00;3.00
